Time;durP1;ratioP1;P1;durP2;ratioP2;P2;SDS_P1;SDS_P2;PMS_P1;PMS_P2;Temp;Humidity;BMP_temperature;BMP_pressure;BME280_temperature;BME280_humidity;BME280_pressure;Samples;Min_cycle;Max_cycle;Signal;HPM_P1;HPM_P2
2022/02/19 00:00:09;;;;;;;0.50;0.30;;;5.80;1.40;;;6.16;100.00;94928.02;618553;226;31878;-76
2022/02/19 00:02:51;;;;;;;0.40;0.20;;;5.80;1.40;;;6.21;100.00;94934.36;646629;216;31703;-75
2022/02/19 00:05:33;;;;;;;0.40;0.30;;;5.80;1.40;;;6.11;100.00;94939.89;645658;215;31504;-75
2022/02/19 00:08:14;;;;;;;0.40;0.20;;;5.80;1.40;;;6.16;100.00;94950.16;636873;216;42344;-72
2022/02/19 00:10:56;;;;;;;0.40;0.20;;;5.70;1.40;;;6.17;100.00;94965.20;646373;212;32055;-73
2022/02/19 00:13:38;;;;;;;0.40;0.20;;;5.80;1.40;;;6.22;100.00;94978.48;646856;212;31572;-73
2022/02/19 00:16:20;;;;;;;0.40;0.20;;;5.80;1.40;;;6.19;100.00;94968.30;646309;212;31458;-72
2022/02/19 00:19:02;;;;;;;0.40;0.20;;;5.70;1.40;;;6.17;100.00;94960.14;647656;216;42106;-75
2022/02/19 00:21:43;;;;;;;0.40;0.20;;;5.80;1.40;;;6.26;100.00;94971.98;647187;216;31498;-72
2022/02/19 00:24:25;;;;;;;0.68;0.35;;;5.80;1.40;;;6.11;100.00;94974.83;618788;226;32409;-72
2022/02/19 00:27:07;;;;;;;0.55;0.20;;;5.80;1.40;;;6.20;100.00;94987.83;646993;216;42704;-76
2022/02/19 00:29:48;;;;;;;1.50;0.30;;;5.80;1.40;;;6.16;100.00;94994.55;647810;216;31596;-78
2022/02/19 00:32:33;;;;;;;0.60;0.30;;;5.70;1.40;;;6.02;100.00;94996.09;618309;225;42498;-76
2022/02/19 00:35:57;;;;;;;0.40;0.20;;;5.60;1.40;;;6.02;100.00;95023.16;641524;216;31584;-78
2022/02/19 00:38:38;;;;;;;0.70;0.40;;;5.70;1.40;;;6.04;100.00;94997.73;646847;216;31604;-77
2022/02/19 00:41:20;;;;;;;0.40;0.30;;;5.60;1.40;;;5.99;100.00;94997.09;620021;226;31850;-76
2022/02/19 00:46:37;;;;;;;0.85;0.28;;;5.30;1.40;;;5.56;100.00;94991.47;617966;226;31912;-76
2022/02/19 00:49:18;;;;;;;1.40;0.40;;;5.20;1.40;;;5.51;100.00;94988.63;646609;216;31589;-76
2022/02/19 00:51:59;;;;;;;1.90;0.50;;;5.10;1.40;;;5.45;100.00;94996.62;647233;216;31494;-76
2022/02/19 00:54:41;;;;;;;0.40;0.25;;;5.20;1.40;;;5.58;100.00;95026.19;646622;216;31498;-77
2022/02/19 00:57:30;;;;;;;0.40;0.20;;;5.30;1.40;;;5.68;100.00;94975.95;649369;212;31567;-81
2022/02/19 01:00:16;;;;;;;3.90;0.30;;;5.40;1.40;;;5.70;100.00;95004.59;648915;216;31521;-80
2022/02/19 01:03:00;;;;;;;0.75;0.55;;;5.40;1.40;;;5.70;100.00;95007.98;646543;216;31515;-77
2022/02/19 01:05:41;;;;;;;3.10;0.40;;;5.30;1.40;;;5.79;100.00;95006.94;646781;216;31464;-79
2022/02/19 01:08:26;;;;;;;0.40;0.20;;;5.50;1.40;;;5.77;100.00;95031.38;634082;212;31657;-78
2022/02/19 01:11:08;;;;;;;0.90;0.60;;;5.40;1.40;;;5.76;97.65;95014.38;646610;216;31514;-77
2022/02/19 01:13:50;;;;;;;0.40;0.20;;;5.50;1.40;;;5.94;91.69;95020.36;647162;216;31776;-76
2022/02/19 01:16:31;;;;;;;4.15;0.50;;;5.60;1.40;;;5.93;89.35;94998.80;647189;216;31463;-75
2022/02/19 01:19:13;;;;;;;1.70;0.70;;;5.60;1.40;;;5.93;87.92;95016.66;646555;216;31518;-78
2022/02/19 01:21:55;;;;;;;0.50;0.40;;;5.60;1.40;;;5.98;85.55;95001.78;646916;216;31529;-76
2022/02/19 01:24:43;;;;;;;0.50;0.30;;;5.70;1.40;;;6.06;84.02;94999.48;621393;226;31848;-82
2022/02/19 01:27:30;;;;;;;1.30;0.50;;;5.70;1.40;;;5.88;86.76;94989.52;647793;216;31496;-77
2022/02/19 01:30:15;;;;;;;0.50;0.40;;;5.50;1.40;;;6.00;84.79;95003.86;646175;212;31540;-77
2022/02/19 01:35:57;;;;;;;0.88;0.30;;;5.70;1.40;;;5.99;85.74;95010.70;645765;216;32194;-75
2022/02/19 01:38:39;;;;;;;0.60;0.50;;;5.50;1.40;;;5.95;86.20;95009.37;646630;212;31519;-78
2022/02/19 01:41:20;;;;;;;0.40;0.20;;;5.50;1.40;;;5.96;87.53;95001.32;646661;214;31506;-77
2022/02/19 01:44:04;;;;;;;0.80;0.30;;;5.50;1.40;;;5.88;91.19;94998.72;647483;216;31579;-77
2022/02/19 01:46:46;;;;;;;0.55;0.22;;;5.50;1.40;;;5.80;93.78;95015.00;647273;216;31486;-76
2022/02/19 01:49:27;;;;;;;0.40;0.30;;;5.40;1.40;;;5.82;95.86;95005.89;647110;216;31608;-77
2022/02/19 01:52:12;;;;;;;0.55;0.25;;;5.40;1.40;;;5.72;99.37;95011.13;646843;212;31692;-78
2022/02/19 01:54:54;;;;;;;0.40;0.20;;;5.30;1.40;;;5.69;100.00;95007.23;647444;216;31665;-77
2022/02/19 01:57:35;;;;;;;0.62;0.37;;;5.20;1.40;;;5.62;100.00;95025.85;647353;212;31466;-75
2022/02/19 02:00:17;;;;;;;0.40;0.20;;;5.20;1.40;;;5.62;100.00;95027.58;647477;216;31498;-75
2022/02/19 02:03:05;;;;;;;0.40;0.30;;;5.20;1.40;;;5.69;100.00;95044.77;648067;216;31560;-80
2022/02/19 02:05:48;;;;;;;0.40;0.20;;;5.30;1.40;;;5.66;100.00;95012.64;646052;216;31528;-76
2022/02/19 02:08:30;;;;;;;0.40;0.30;;;5.30;1.40;;;5.62;100.00;95025.27;611443;222;32178;-78
2022/02/19 02:11:16;;;;;;;0.40;0.30;;;5.20;1.40;;;5.64;100.00;95024.81;619002;226;31903;-76
2022/02/19 02:13:57;;;;;;;0.40;0.30;;;5.30;1.40;;;5.63;100.00;95026.60;646340;216;31501;-78
2022/02/19 02:16:38;;;;;;;0.40;0.20;;;5.20;1.40;;;5.66;100.00;95029.10;647696;216;31530;-78
2022/02/19 02:19:20;;;;;;;1.30;0.50;;;5.30;1.40;;;5.61;100.00;95049.80;646990;216;31613;-79
2022/02/19 02:22:08;;;;;;;0.40;0.30;;;5.30;1.40;;;5.70;100.00;95033.80;640970;215;31471;-80
2022/02/19 02:24:55;;;;;;;2.00;0.70;;;5.30;1.40;;;5.71;100.00;95023.30;647731;216;31513;-77
2022/02/19 02:27:37;;;;;;;0.40;0.20;;;5.40;1.40;;;5.73;100.00;95029.83;620262;226;31839;-78
2022/02/19 02:30:25;;;;;;;2.30;0.40;;;5.40;1.40;;;5.82;100.00;95033.59;619590;226;31983;-80
2022/02/19 02:35:53;;;;;;;2.50;0.50;;;5.30;1.40;;;5.73;100.00;95032.30;647805;216;31568;-77
2022/02/19 02:38:35;;;;;;;0.70;0.50;;;5.30;1.40;;;5.68;100.00;95037.41;646755;216;31804;-76
2022/02/19 02:41:31;;;;;;;0.40;0.20;;;5.20;1.40;;;5.68;100.00;95053.87;647662;216;31530;-80
2022/02/19 02:44:19;;;;;;;0.40;0.30;;;5.30;1.40;;;5.71;100.00;95046.95;646409;216;32084;-74
2022/02/19 02:47:02;;;;;;;0.80;0.50;;;5.30;1.40;;;5.80;100.00;95045.07;619175;226;31895;-77
2022/02/19 02:49:42;;;;;;;0.40;0.20;;;5.40;1.40;;;5.72;100.00;95055.98;647166;216;31720;-77
2022/02/19 02:52:24;;;;;;;0.40;0.30;;;5.30;1.40;;;5.63;100.00;95061.13;618511;226;31860;-78
2022/02/19 02:55:07;;;;;;;0.40;0.22;;;5.20;1.40;;;5.64;100.00;95060.41;646885;216;31516;-74
2022/02/19 02:57:51;;;;;;;0.40;0.30;;;5.20;1.40;;;5.58;100.00;95075.36;645858;212;31499;-76
2022/02/19 03:00:33;;;;;;;0.60;0.40;;;5.10;1.40;;;5.24;100.00;95086.71;647433;216;31504;-77
2022/02/19 03:03:14;;;;;;;0.40;0.20;;;4.80;1.40;;;4.79;100.00;95108.66;647412;216;31489;-78
2022/02/19 03:06:03;;;;;;;0.40;0.20;;;4.40;1.40;;;4.60;100.00;95091.38;644921;216;31682;-79
2022/02/19 03:08:44;;;;;;;0.40;0.20;;;4.10;1.40;;;4.45;100.00;95108.49;647348;216;31502;-80
2022/02/19 03:11:32;;;;;;;0.40;0.30;;;4.00;1.40;;;4.35;100.00;95094.79;645544;216;31527;-75
2022/02/19 03:14:14;;;;;;;0.40;0.30;;;4.10;1.40;;;4.35;100.00;95101.02;646601;216;32084;-75
2022/02/19 03:16:56;;;;;;;0.40;0.20;;;4.10;1.40;;;4.25;100.00;95105.20;647104;216;31485;-76
2022/02/19 03:19:39;;;;;;;0.40;0.20;;;4.10;1.40;;;4.16;100.00;95134.53;620609;226;31824;-77
2022/02/19 03:22:23;;;;;;;0.50;0.40;;;3.90;1.40;;;3.60;100.00;95152.90;646416;216;31729;-77
2022/02/19 03:25:05;;;;;;;0.40;0.20;;;3.40;1.40;;;3.26;100.00;95152.50;642530;216;31505;-77
2022/02/19 03:27:53;;;;;;;0.60;0.30;;;3.00;1.40;;;3.10;100.00;95134.02;647741;212;31635;-78
2022/02/19 03:30:35;;;;;;;0.40;0.20;;;3.00;1.40;;;3.13;100.00;95162.52;648790;216;31499;-79
2022/02/19 03:35:57;;;;;;;0.40;0.30;;;3.00;1.40;;;3.01;100.00;95144.02;646973;212;31484;-75
2022/02/19 03:38:38;;;;;;;1.30;0.50;;;2.70;1.40;;;2.72;100.00;95113.00;645625;216;31824;-75
2022/02/19 03:41:23;;;;;;;0.40;0.20;;;2.40;1.40;;;2.73;100.00;95118.35;647223;212;31506;-73
2022/02/19 03:44:05;;;;;;;0.40;0.20;;;2.30;1.40;;;2.70;100.00;95117.06;647704;216;42115;-74
2022/02/19 03:46:47;;;;;;;0.40;0.20;;;2.30;1.40;;;2.65;100.00;95133.69;645775;216;31623;-76
2022/02/19 03:49:29;;;;;;;0.40;0.30;;;2.20;1.40;;;2.59;100.00;95124.17;647193;216;31515;-74
2022/02/19 03:52:10;;;;;;;0.40;0.30;;;2.20;1.40;;;2.62;100.00;95135.23;647588;216;31523;-74
2022/02/19 03:54:52;;;;;;;0.40;0.20;;;2.20;1.40;;;2.62;100.00;95127.90;646810;212;31515;-74
2022/02/19 03:57:34;;;;;;;0.40;0.20;;;2.30;1.40;;;2.69;100.00;95142.05;619545;226;31883;-77
2022/02/19 04:00:16;;;;;;;0.40;0.20;;;2.40;1.40;;;2.60;100.00;95149.16;647249;216;31615;-74
2022/02/19 04:03:09;;;;;;;0.40;0.30;;;2.30;1.40;;;2.65;100.00;95146.59;651389;213;31480;-78
2022/02/19 04:05:54;;;;;;;0.50;0.40;;;2.30;1.40;;;2.73;100.00;95148.11;619375;226;31901;-75
2022/02/19 04:08:42;;;;;;;0.90;0.50;;;2.40;1.40;;;2.82;100.00;95147.42;647682;216;31595;-78
2022/02/19 04:11:29;;;;;;;0.40;0.20;;;2.50;1.40;;;3.01;100.00;95147.39;646817;216;31574;-76
2022/02/19 04:14:15;;;;;;;0.40;0.20;;;2.70;1.40;;;2.97;100.00;95149.39;646875;216;31505;-74
2022/02/19 04:16:57;;;;;;;0.40;0.30;;;2.70;1.40;;;3.06;100.00;95149.54;646254;216;31489;-74
2022/02/19 04:19:40;;;;;;;0.40;0.20;;;2.80;1.40;;;3.08;100.00;95160.16;648196;212;31492;-79
2022/02/19 04:22:28;;;;;;;0.40;0.20;;;2.90;1.40;;;3.12;100.00;95155.92;646730;216;31480;-75
2022/02/19 04:25:16;;;;;;;0.40;0.20;;;2.90;1.40;;;3.10;100.00;95159.25;648377;216;31570;-79
2022/02/19 04:28:06;;;;;;;0.40;0.20;;;2.90;1.40;;;3.24;100.00;95167.44;645264;216;31516;-75
2022/02/19 04:30:47;;;;;;;0.50;0.30;;;3.00;1.40;;;3.30;100.00;95171.25;647387;212;32346;-75
2022/02/19 04:35:52;;;;;;;0.40;0.30;;;3.10;1.40;;;3.34;100.00;95183.05;647092;216;31614;-74
2022/02/19 04:38:34;;;;;;;0.70;0.70;;;3.00;1.40;;;3.36;100.00;95198.41;646002;216;31501;-76
2022/02/19 04:41:16;;;;;;;2.40;0.80;;;3.10;1.40;;;3.33;100.00;95190.81;646988;216;31512;-75
2022/02/19 04:43:58;;;;;;;0.40;0.30;;;3.10;1.40;;;3.45;100.00;95183.20;645652;216;42285;-75
2022/02/19 04:46:49;;;;;;;0.40;0.20;;;3.10;1.40;;;3.37;100.00;95198.13;647188;216;31574;-78
2022/02/19 04:49:36;;;;;;;0.80;0.50;;;3.20;1.40;;;3.52;100.00;95191.94;646968;216;31510;-77
2022/02/19 04:52:18;;;;;;;0.40;0.40;;;3.30;1.40;;;3.62;100.00;95199.27;647592;213;31573;-76
2022/02/19 04:55:04;;;;;;;0.40;0.20;;;3.40;1.40;;;3.81;100.00;95201.39;647075;212;31549;-75
2022/02/19 04:57:46;;;;;;;0.40;0.20;;;3.70;1.40;;;3.84;100.00;95202.95;645484;216;31625;-75
2022/02/19 05:00:31;;;;;;;0.40;0.30;;;3.60;1.40;;;3.85;100.00;95196.73;648094;216;31494;-80
2022/02/19 05:05:55;;;;;;;0.40;0.40;;;3.60;1.40;;;3.81;100.00;95210.94;646056;216;31660;-79
2022/02/19 05:08:43;;;;;;;1.40;0.30;;;3.50;1.40;;;3.82;100.00;95207.56;646369;216;31506;-75
2022/02/19 05:11:24;;;;;;;0.40;0.20;;;3.50;1.40;;;3.76;100.00;95213.35;646886;212;31567;-77
2022/02/19 05:14:12;;;;;;;0.50;0.30;;;3.50;1.40;;;3.90;100.00;95208.47;648005;216;31483;-78
2022/02/19 05:17:00;;;;;;;0.40;0.20;;;3.60;1.40;;;3.89;100.00;95215.17;646352;216;31485;-75
2022/02/19 05:19:42;;;;;;;0.70;0.70;;;3.60;1.40;;;3.90;100.00;95217.64;647794;216;42096;-76
2022/02/19 05:22:23;;;;;;;2.20;0.30;;;3.50;1.40;;;3.93;100.00;95224.53;646593;216;31526;-77
2022/02/19 05:25:11;;;;;;;0.60;0.40;;;3.60;1.40;;;3.91;100.00;95231.72;619000;226;31838;-80
2022/02/19 05:27:53;;;;;;;0.40;0.22;;;3.60;1.40;;;4.01;100.00;95233.27;646725;216;31596;-79
2022/02/19 05:30:37;;;;;;;0.40;0.30;;;3.80;1.40;;;4.14;100.00;95236.89;646333;216;31508;-77
2022/02/19 05:35:51;;;;;;;0.40;0.40;;;3.70;1.40;;;4.18;100.00;95240.86;619839;226;31808;-79
2022/02/19 05:38:38;;;;;;;0.40;0.30;;;3.80;1.40;;;4.14;100.00;95244.08;646855;216;31517;-76
2022/02/19 05:41:20;;;;;;;0.50;0.32;;;3.80;1.40;;;4.23;100.00;95248.31;646670;216;31531;-75
2022/02/19 05:44:08;;;;;;;1.20;0.80;;;3.90;1.40;;;4.30;100.00;95248.66;619735;226;32089;-80
2022/02/19 05:49:30;;;;;;;0.40;0.20;;;4.00;1.40;;;4.30;100.00;95251.13;647322;212;31474;-76
2022/02/19 05:52:13;;;;;;;1.00;0.40;;;3.80;1.40;;;4.29;100.00;95259.18;649495;212;31507;-75
2022/02/19 05:54:55;;;;;;;0.40;0.30;;;3.90;1.40;;;4.34;100.00;95263.79;649797;212;31497;-76
2022/02/19 05:57:40;;;;;;;0.40;0.20;;;4.00;1.40;;;4.37;100.00;95265.19;647532;216;42691;-76
2022/02/19 06:00:22;;;;;;;0.40;0.20;;;3.90;1.40;;;4.31;100.00;95270.50;646647;216;31766;-76
2022/02/19 06:03:09;;;;;;;0.40;0.30;;;3.90;1.40;;;4.35;100.00;95268.45;650439;212;31494;-80
2022/02/19 06:05:57;;;;;;;0.50;0.30;;;3.90;1.40;;;4.28;100.00;95265.22;651217;216;31502;-75
2022/02/19 06:08:39;;;;;;;2.60;0.95;;;3.70;1.40;;;4.24;100.00;95266.50;644106;212;32100;-76
2022/02/19 06:11:20;;;;;;;2.97;1.08;;;3.80;1.40;;;4.31;100.00;95276.03;650225;212;32136;-78
2022/02/19 06:14:08;;;;;;;0.47;0.20;;;3.80;1.40;;;4.38;100.00;95281.02;649943;216;31483;-80
2022/02/19 06:19:41;;;;;;;0.70;0.50;;;4.00;1.40;;;4.40;100.00;95280.42;622825;226;31945;-80
2022/02/19 06:22:23;;;;;;;0.40;0.30;;;3.90;1.40;;;4.40;100.00;95289.06;619245;222;32022;-80
2022/02/19 06:25:11;;;;;;;0.40;0.30;;;4.00;1.40;;;4.35;100.00;95291.00;649398;216;31469;-77
2022/02/19 06:27:53;;;;;;;0.73;0.45;;;3.90;1.40;;;4.35;100.00;95294.97;645347;212;31517;-76
2022/02/19 06:30:38;;;;;;;0.60;0.50;;;4.00;1.40;;;4.47;100.00;95305.83;646143;212;32180;-78
2022/02/19 06:35:53;;;;;;;0.62;0.47;;;4.00;1.40;;;4.61;100.00;95314.20;647266;216;31479;-80
2022/02/19 06:38:41;;;;;;;1.00;0.30;;;4.20;1.40;;;4.65;100.00;95327.02;618001;226;31991;-76
2022/02/19 06:41:27;;;;;;;1.50;0.80;;;4.30;1.40;;;4.64;100.00;95315.80;648300;216;31944;-78
2022/02/19 06:44:09;;;;;;;0.60;0.50;;;4.30;1.40;;;4.71;100.00;95325.44;647782;216;31556;-78
2022/02/19 06:46:50;;;;;;;0.98;0.43;;;4.30;1.40;;;4.66;100.00;95331.30;647507;212;31549;-77
2022/02/19 06:49:38;;;;;;;0.62;0.43;;;4.30;1.40;;;4.72;100.00;95345.14;622710;222;31860;-80
2022/02/19 06:52:22;;;;;;;0.40;0.20;;;4.30;1.40;;;4.67;100.00;95342.14;645832;216;31584;-76
2022/02/19 06:55:04;;;;;;;0.40;0.37;;;4.30;1.40;;;4.71;100.00;95345.89;650771;216;31518;-78
2022/02/19 06:57:47;;;;;;;0.60;0.60;;;4.30;1.40;;;4.71;100.00;95361.79;618247;226;31842;-78
2022/02/19 07:00:34;;;;;;;0.50;0.50;;;4.30;1.40;;;4.60;100.00;95362.52;648201;216;32114;-80
2022/02/19 07:03:19;;;;;;;0.40;0.22;;;4.10;1.40;;;4.53;100.00;95382.98;621273;226;31884;-76
2022/02/19 07:06:00;;;;;;;0.55;0.40;;;4.20;1.40;;;4.51;100.00;95387.97;615639;227;31813;-76
2022/02/19 07:08:41;;;;;;;2.10;0.50;;;4.20;1.40;;;4.63;100.00;95384.00;619517;222;32125;-76
2022/02/19 07:11:24;;;;;;;0.40;0.20;;;4.30;1.40;;;4.68;100.00;95388.75;647761;216;31499;-77
2022/02/19 07:14:05;;;;;;;0.40;0.20;;;4.30;1.40;;;4.81;100.00;95399.92;637038;221;31715;-77
2022/02/19 07:16:47;;;;;;;1.12;1.02;;;4.40;1.40;;;4.84;100.00;95390.70;618801;226;32011;-76
2022/02/19 07:19:35;;;;;;;4.50;0.75;;;4.40;1.40;;;4.70;100.00;95400.03;650672;216;31591;-81
2022/02/19 07:22:17;;;;;;;0.40;0.40;;;4.30;1.40;;;4.70;100.00;95402.23;648098;216;31501;-80
2022/02/19 07:25:04;;;;;;;0.40;0.20;;;4.30;1.40;;;4.74;100.00;95405.94;647942;216;31516;-78
2022/02/19 07:27:52;;;;;;;3.00;0.50;;;4.40;1.40;;;4.82;100.00;95421.34;620837;226;32150;-80
2022/02/19 07:30:38;;;;;;;1.00;0.60;;;4.50;1.40;;;4.85;100.00;95411.22;643141;217;31535;-80
2022/02/19 07:35:54;;;;;;;3.83;0.88;;;4.50;1.40;;;4.83;100.00;95433.70;643186;214;31481;-76
2022/02/19 07:38:42;;;;;;;2.60;0.60;;;4.50;1.40;;;4.85;100.00;95441.36;616560;224;31920;-79
2022/02/19 07:41:27;;;;;;;1.30;0.40;;;4.50;1.40;;;4.94;100.00;95447.21;648849;212;31489;-80
2022/02/19 07:44:15;;;;;;;0.70;0.70;;;4.60;1.40;;;4.94;100.00;95440.55;647715;216;33167;-78
2022/02/19 07:46:56;;;;;;;0.40;0.20;;;4.60;1.40;;;5.00;100.00;95450.59;647668;212;31690;-77
2022/02/19 08:00:59;;;;;;;1.67;0.60;;;4.80;1.40;;;5.27;100.00;95466.70;646620;216;31512;-77
2022/02/19 08:04:03;;;;;;;1.00;0.45;;;4.80;1.40;;;5.37;100.00;95474.48;650626;216;31646;-79
2022/02/19 08:06:46;;;;;;;0.50;0.50;;;4.80;1.40;;;5.17;100.00;95457.16;646354;216;31497;-77
2022/02/19 08:09:31;;;;;;;1.00;0.80;;;4.80;1.40;;;5.24;100.00;95468.16;645297;216;31520;-78
2022/02/19 08:12:19;;;;;;;1.67;0.60;;;4.90;1.40;;;5.20;100.00;95475.22;648220;212;31660;-81
2022/02/19 08:15:07;;;;;;;0.40;0.40;;;4.90;1.40;;;5.27;100.00;95480.30;647355;216;42564;-76
2022/02/19 08:17:51;;;;;;;1.58;0.85;;;4.90;1.40;;;5.45;100.00;95474.23;646304;212;32111;-77
2022/02/19 08:20:36;;;;;;;2.67;1.08;;;5.10;1.40;;;5.55;100.00;95480.50;646691;216;31892;-78
2022/02/19 08:23:18;;;;;;;1.92;0.45;;;5.20;1.40;;;5.68;100.00;95498.95;646401;212;31521;-78
2022/02/19 08:25:59;;;;;;;0.70;0.40;;;5.30;1.40;;;5.71;100.00;95485.66;647225;216;31633;-78
2022/02/19 08:28:41;;;;;;;0.90;0.52;;;5.30;1.40;;;5.72;100.00;95493.77;646004;212;31579;-76
2022/02/19 08:31:23;;;;;;;1.90;0.30;;;5.30;1.40;;;5.89;100.00;95480.03;647658;212;31506;-76
2022/02/19 08:35:51;;;;;;;0.95;0.70;;;5.60;1.40;;;6.08;100.00;95500.05;618683;226;31837;-77
2022/02/19 08:38:32;;;;;;;0.60;0.30;;;5.80;1.40;;;6.22;100.00;95489.73;618458;225;32658;-76
2022/02/19 08:41:14;;;;;;;0.40;0.30;;;6.00;1.40;;;6.26;100.00;95500.81;647780;212;31503;-78
2022/02/19 08:43:56;;;;;;;2.10;0.40;;;6.00;1.40;;;6.33;100.00;95505.97;647116;212;31573;-77
2022/02/19 08:46:38;;;;;;;1.40;0.40;;;6.00;1.40;;;6.45;100.00;95505.32;619649;222;43096;-76
2022/02/19 08:49:20;;;;;;;1.40;0.50;;;6.00;1.40;;;6.23;100.00;95514.88;646133;216;31549;-77
2022/02/19 08:52:03;;;;;;;1.00;0.40;;;5.90;1.40;;;6.42;100.00;95521.01;646567;216;31516;-77
2022/02/19 08:54:44;;;;;;;1.50;0.60;;;6.00;1.40;;;6.51;100.00;95520.19;646032;215;42731;-76
2022/02/19 08:57:29;;;;;;;2.05;0.50;;;6.00;1.40;;;6.44;100.00;95529.30;647095;212;31516;-77
2022/02/19 09:00:14;;;;;;;2.23;0.80;;;5.80;1.40;;;6.28;100.00;95526.86;647812;216;31511;-76
2022/02/19 09:02:56;;;;;;;0.70;0.50;;;5.80;1.40;;;6.41;97.99;95526.83;647905;216;31497;-78
2022/02/19 09:05:38;;;;;;;1.40;0.90;;;5.90;1.40;;;6.32;99.15;95514.83;645786;216;42209;-79
2022/02/19 09:08:19;;;;;;;3.17;0.75;;;6.00;1.40;;;6.55;98.34;95522.32;635728;216;32219;-79
2022/02/19 09:11:07;;;;;;;2.20;0.50;;;6.00;1.40;;;6.54;100.00;95521.36;643859;217;31542;-80
2022/02/19 09:13:55;;;;;;;0.90;0.50;;;6.00;1.40;;;6.35;93.55;95530.36;647076;216;31597;-78
2022/02/19 09:16:37;;;;;;;2.30;0.70;;;6.60;1.40;;;7.05;93.95;95537.55;646963;216;42565;-78
2022/02/19 09:19:20;;;;;;;0.75;0.55;;;7.10;1.40;;;6.87;91.11;95522.87;649187;216;31491;-81
2022/02/19 09:22:08;;;;;;;3.60;0.80;;;6.90;1.40;;;8.25;85.95;95532.11;618577;222;32094;-76
2022/02/19 09:24:50;;;;;;;1.50;0.80;;;8.10;1.40;;;8.22;85.44;95521.41;631616;222;42539;-76
2022/02/19 09:27:32;;;;;;;0.40;0.40;;;7.20;1.40;;;6.76;87.55;95536.08;645848;212;31539;-76
2022/02/19 09:30:13;;;;;;;4.30;0.70;;;6.30;1.40;;;8.60;85.93;95523.71;618801;226;31941;-79
2022/02/19 09:33:01;;;;;;;0.70;0.70;;;8.30;1.40;;;7.95;81.10;95530.45;653152;212;23445;-78
2022/02/19 09:35:53;;;;;;;1.10;0.40;;;7.40;1.40;;;7.40;80.46;95532.16;646359;216;31586;-78
2022/02/19 09:38:35;;;;;;;0.50;0.40;;;6.60;1.40;;;7.82;80.22;95539.95;647106;216;31540;-77
2022/02/19 09:43:51;;;;;;;1.85;0.68;;;7.30;1.40;;;8.24;81.54;95535.20;646283;216;31829;-76
2022/02/19 09:46:39;;;;;;;0.95;0.75;;;7.20;1.40;;;7.92;83.47;95558.64;643550;215;31911;-83
2022/02/19 09:49:22;;;;;;;0.70;0.50;;;8.30;1.40;;;7.05;82.96;95542.55;647027;216;32035;-78
2022/02/19 09:52:08;;;;;;;1.10;0.30;;;6.20;1.40;;;7.33;85.59;95558.86;618303;222;31880;-79
2022/02/19 09:54:49;;;;;;;1.30;0.40;;;6.90;1.40;;;7.06;82.91;95555.44;646148;216;31546;-75
2022/02/19 09:57:31;;;;;;;1.10;0.60;;;6.40;1.40;;;9.15;77.27;95561.59;646099;216;31588;-76
2022/02/19 10:00:16;;;;;;;3.40;0.80;;;10.20;1.40;;;10.25;69.17;95550.09;646488;216;31522;-76
2022/02/19 10:02:58;;;;;;;1.60;0.50;;;10.50;1.40;;;10.97;65.23;95550.52;619283;222;32371;-75
2022/02/19 10:05:40;;;;;;;0.50;0.30;;;10.70;1.40;;;11.17;61.53;95558.75;631093;217;31682;-76
2022/02/19 10:08:24;;;;;;;1.20;0.50;;;10.00;1.40;;;10.22;62.04;95557.34;647079;216;31542;-77
2022/02/19 10:11:06;;;;;;;1.30;0.70;;;9.40;1.40;;;9.17;68.97;95564.59;646552;212;31641;-76
2022/02/19 10:13:48;;;;;;;1.30;0.40;;;7.90;1.40;;;8.19;73.25;95589.65;647839;216;32015;-76
2022/02/19 10:16:30;;;;;;;0.62;0.37;;;7.00;1.40;;;8.56;76.13;95580.35;647168;216;31544;-76
2022/02/19 10:19:15;;;;;;;4.10;0.60;;;9.30;1.40;;;9.73;70.60;95579.41;619723;226;42515;-78
2022/02/19 10:22:12;;;;;;;1.05;0.93;;;10.00;1.40;;;8.53;71.95;95595.23;647001;216;31887;-75
2022/02/19 10:24:53;;;;;;;0.77;0.40;;;7.10;1.40;;;7.07;75.21;95594.12;642090;216;31662;-76
2022/02/19 10:27:39;;;;;;;0.50;0.40;;;6.40;1.40;;;7.49;77.72;95588.81;645713;216;32750;-75
2022/02/19 10:30:20;;;;;;;0.90;0.40;;;7.20;1.40;;;8.39;75.58;95591.77;646012;216;31496;-77
2022/02/19 10:33:12;;;;;;;;;;;;;;;;;;;;;
2022/02/19 10:35:51;;;;;;;2.20;0.80;;;9.40;1.40;;;10.09;62.34;95576.51;647363;212;32101;-76
2022/02/19 10:38:33;;;;;;;2.60;1.00;;;10.00;1.40;;;10.19;62.63;95599.95;647429;212;31513;-76
2022/02/19 10:41:15;;;;;;;2.70;0.80;;;9.50;1.40;;;8.53;66.29;95601.59;645691;215;31522;-77
2022/02/19 10:43:56;;;;;;;0.70;0.40;;;8.50;1.40;;;8.83;68.16;95594.53;618859;226;32026;-76
2022/02/19 10:46:41;;;;;;;1.10;0.50;;;8.30;1.40;;;9.26;66.50;95590.55;646632;212;31694;-78
2022/02/19 10:49:24;;;;;;;1.48;0.55;;;9.80;1.40;;;10.51;59.19;95583.84;647497;212;31469;-76
2022/02/19 10:52:05;;;;;;;2.80;1.03;;;10.10;1.40;;;10.33;60.09;95593.41;618010;226;42540;-75
2022/02/19 10:54:46;;;;;;;3.20;1.00;;;10.60;1.40;;;10.78;55.33;95590.20;619211;222;43100;-76
2022/02/19 10:57:28;;;;;;;2.53;0.57;;;10.80;1.40;;;9.52;60.12;95579.87;646396;212;31595;-78
2022/02/19 11:00:13;;;;;;;0.68;0.30;;;9.40;1.40;;;10.39;58.19;95587.77;646288;212;31672;-75
2022/02/19 11:02:55;;;;;;;2.67;0.70;;;9.90;1.40;;;10.32;56.80;95587.16;646832;216;31759;-76
2022/02/19 11:05:36;;;;;;;0.90;0.50;;;10.50;1.40;;;10.66;55.33;95573.97;619928;222;31897;-76
2022/02/19 11:08:22;;;;;;;0.80;0.40;;;10.80;1.40;;;11.17;57.53;95571.77;634619;212;31743;-76
2022/02/19 11:11:00;;;;;;;2.63;0.70;;;11.00;1.40;;;10.03;57.00;95581.90;647628;216;32415;-76
2022/02/19 11:13:42;;;;;;;1.90;0.60;;;9.50;1.40;;;9.91;58.14;95582.21;619078;226;31884;-76
2022/02/19 11:16:23;;;;;;;0.83;0.43;;;9.70;1.40;;;10.71;56.63;95569.38;618848;222;31790;-76
2022/02/19 11:19:05;;;;;;;2.03;0.50;;;9.60;1.40;;;9.99;60.75;95569.24;647180;216;31528;-76
2022/02/19 11:21:46;;;;;;;1.93;0.70;;;10.20;1.40;;;10.23;61.67;95558.70;647313;212;31541;-77
2022/02/19 11:24:28;;;;;;;2.67;0.50;;;10.20;1.40;;;11.55;58.28;95547.79;646182;216;31516;-77
2022/02/19 11:27:10;;;;;;;2.13;0.60;;;12.00;1.40;;;12.67;54.65;95543.46;645399;212;32162;-76
2022/02/19 11:29:51;;;;;;;0.70;0.40;;;12.50;1.40;;;12.24;52.95;95553.31;646189;216;31847;-76
2022/02/19 11:35:51;;;;;;;1.00;0.40;;;11.30;1.40;;;11.87;50.77;95550.48;647403;216;31510;-76
2022/02/19 11:38:35;;;;;;;2.60;0.70;;;11.50;1.40;;;13.08;49.17;95549.89;647556;216;42121;-76
2022/02/19 11:41:19;;;;;;;1.90;0.70;;;12.10;1.40;;;12.70;46.36;95545.82;646450;212;32123;-76
2022/02/19 11:43:57;;;;;;;0.70;0.35;;;10.50;1.40;;;10.00;53.45;95556.86;646678;212;32775;-76
2022/02/19 11:46:39;;;;;;;1.23;0.57;;;8.20;1.40;;;9.35;57.70;95554.19;646708;216;31472;-78
2022/02/19 11:49:22;;;;;;;0.67;0.50;;;7.80;1.40;;;8.80;59.77;95563.86;646781;212;31602;-77
2022/02/19 11:52:20;;;;;;;0.60;0.50;;;7.60;1.40;;;8.26;61.79;95555.16;647103;216;31536;-77
2022/02/19 11:55:27;;;;;;;0.90;0.40;;;7.50;1.40;;;7.89;62.77;95553.70;646585;216;31522;-78
2022/02/19 11:58:15;;;;;;;0.67;0.43;;;7.10;1.40;;;7.56;67.80;95558.37;621789;226;32112;-80
2022/02/19 12:01:02;;;;;;;0.60;0.40;;;6.70;1.40;;;7.31;67.66;95559.31;645512;212;31693;-75
2022/02/19 12:03:44;;;;;;;0.70;0.50;;;6.90;1.40;;;7.49;67.28;95557.90;646175;216;32680;-75
2022/02/19 12:06:27;;;;;;;3.70;0.90;;;6.90;1.40;;;7.58;67.39;95556.09;644961;216;31527;-75
2022/02/19 12:09:09;;;;;;;3.50;0.60;;;7.00;1.40;;;8.63;66.55;95548.48;646355;216;31643;-75
2022/02/19 12:12:05;;;;;;;1.70;0.60;;;8.80;1.40;;;10.73;57.18;95539.83;646484;212;32273;-76
2022/02/19 12:14:47;;;;;;;1.02;0.52;;;10.20;1.40;;;9.49;55.53;95547.77;645785;216;31505;-76
2022/02/19 12:17:46;;;;;;;0.80;0.60;;;7.90;1.40;;;8.37;58.18;95551.42;648174;212;31466;-78
2022/02/19 12:20:29;;;;;;;0.40;0.30;;;7.00;1.40;;;7.92;64.62;95551.69;645859;212;31679;-75
2022/02/19 12:23:11;;;;;;;0.80;0.30;;;7.10;1.40;;;7.59;63.37;95542.39;646716;216;31493;-76
2022/02/19 12:26:03;;;;;;;0.70;0.30;;;6.90;1.40;;;7.36;64.39;95534.30;620039;226;31997;-79
2022/02/19 12:28:45;;;;;;;1.75;0.68;;;6.80;1.40;;;7.42;63.83;95533.33;617605;226;32084;-74
2022/02/19 12:31:31;;;;;;;0.80;0.50;;;6.80;1.40;;;8.19;62.33;95531.16;646382;216;31493;-78
2022/02/19 12:35:53;;;;;;;0.80;0.30;;;9.90;1.40;;;10.38;55.87;95517.86;646553;216;31596;-78